createdAt,value
2022-08-19T00:01:39.133Z,30.80
2022-08-19T00:04:41.395Z,34.20
2022-08-19T00:07:44.047Z,33.10
2022-08-19T00:10:46.999Z,31.80
2022-08-19T00:13:51.106Z,31.60
2022-08-19T00:16:55.540Z,31.10
2022-08-19T00:19:57.523Z,31.20
2022-08-19T00:23:03.133Z,32.40
2022-08-19T00:26:05.989Z,30.60
2022-08-19T00:29:10.002Z,34.00
2022-08-19T00:32:11.879Z,31.50
2022-08-19T00:35:15.586Z,33.00
2022-08-19T00:38:17.277Z,30.00
2022-08-19T00:41:37.397Z,30.10
2022-08-19T00:44:42.339Z,31.60
2022-08-19T00:47:46.023Z,35.30
2022-08-19T00:50:52.212Z,35.80
2022-08-19T00:53:56.965Z,30.90
2022-08-19T00:57:00.446Z,32.90
2022-08-19T01:00:06.911Z,33.40
2022-08-19T01:03:11.889Z,33.80
2022-08-19T01:06:19.850Z,32.00
2022-08-19T01:09:23.053Z,30.40
2022-08-19T01:12:25.004Z,31.90
2022-08-19T01:15:31.475Z,35.20
2022-08-19T01:18:37.184Z,31.40
2022-08-19T01:21:45.587Z,33.80
2022-08-19T01:24:49.972Z,32.50
2022-08-19T01:27:53.614Z,32.10
2022-08-19T01:30:56.394Z,32.40
2022-08-19T01:33:59.501Z,32.50
2022-08-19T01:37:03.257Z,33.00
2022-08-19T01:40:09.300Z,33.60
2022-08-19T01:43:11.585Z,31.80
2022-08-19T01:46:13.935Z,32.80
2022-08-19T01:49:18.019Z,37.40
2022-08-19T01:52:20.789Z,38.00
2022-08-19T01:55:24.870Z,35.10
2022-08-19T01:58:31.420Z,35.70
2022-08-19T02:01:33.712Z,32.40
2022-08-19T02:04:36.695Z,33.20
2022-08-19T02:07:41.306Z,34.10
2022-08-19T02:10:44.690Z,35.50
2022-08-19T02:13:46.539Z,35.50
2022-08-19T02:16:49.009Z,38.10
2022-08-19T02:19:51.260Z,36.70
2022-08-19T02:22:53.581Z,37.60
2022-08-19T02:25:55.775Z,37.90
2022-08-19T02:28:57.655Z,36.60
2022-08-19T02:31:59.567Z,37.70
2022-08-19T02:35:01.840Z,36.70
2022-08-19T02:38:22.475Z,35.30
2022-08-19T02:41:27.969Z,39.20
2022-08-19T02:44:32.009Z,36.70
2022-08-19T02:47:34.932Z,35.10
2022-08-19T02:50:41.057Z,34.80
2022-08-19T02:53:55.557Z,34.10
2022-08-19T02:56:57.318Z,34.50
2022-08-19T02:59:59.711Z,36.90
2022-08-19T03:03:01.493Z,37.90
2022-08-19T03:06:06.115Z,36.00
2022-08-19T03:09:08.031Z,39.00
2022-08-19T03:12:11.332Z,36.60
2022-08-19T03:15:13.178Z,36.30
2022-08-19T03:18:15.829Z,40.90
2022-08-19T03:21:22.413Z,37.70
2022-08-19T03:24:24.794Z,37.80
2022-08-19T03:27:29.061Z,36.30
2022-08-19T03:30:36.147Z,33.70
2022-08-19T03:33:39.681Z,38.80
2022-08-19T03:36:41.993Z,39.10
2022-08-19T03:39:44.085Z,39.30
2022-08-19T03:42:49.105Z,39.00
2022-08-19T03:46:01.329Z,37.00
2022-08-19T03:49:08.542Z,39.30
2022-08-19T03:52:10.330Z,41.40
2022-08-19T03:55:12.393Z,36.20
2022-08-19T03:58:14.313Z,39.30
2022-08-19T04:01:19.073Z,42.00
2022-08-19T04:04:20.809Z,41.20
2022-08-19T04:07:22.685Z,39.60
2022-08-19T04:10:25.224Z,44.90
2022-08-19T04:13:27.326Z,40.60
2022-08-19T04:16:35.092Z,39.30
2022-08-19T04:19:37.991Z,39.90
2022-08-19T04:22:39.657Z,40.00
2022-08-19T04:25:43.696Z,38.30
2022-08-19T04:28:45.685Z,34.10
2022-08-19T04:31:47.660Z,38.50
2022-08-19T04:35:02.460Z,39.90
2022-08-19T04:38:12.070Z,34.50
2022-08-19T04:41:32.243Z,33.70
2022-08-19T04:44:36.256Z,35.20
2022-08-19T04:47:48.241Z,33.80
2022-08-19T04:50:59.921Z,33.30
2022-08-19T04:54:03.188Z,34.30
2022-08-19T04:57:07.796Z,30.90
2022-08-19T05:00:11.919Z,32.80
2022-08-19T05:03:14.499Z,31.40
2022-08-19T05:06:19.286Z,34.50
2022-08-19T05:09:22.809Z,32.20
2022-08-19T05:12:29.197Z,30.00
2022-08-19T05:15:32.234Z,30.50
2022-08-19T05:18:53.208Z,30.20
2022-08-19T05:22:13.770Z,29.80
2022-08-19T05:25:20.274Z,29.30
2022-08-19T05:28:22.365Z,26.70
2022-08-19T05:31:24.183Z,25.70
2022-08-19T05:34:27.417Z,25.60
2022-08-19T05:37:29.606Z,28.90
2022-08-19T05:40:31.337Z,27.60
2022-08-19T05:43:33.678Z,24.90
2022-08-19T05:46:35.924Z,25.90
2022-08-19T05:49:38.632Z,23.40
2022-08-19T05:52:43.737Z,21.70
2022-08-19T05:55:52.187Z,24.50
2022-08-19T05:58:55.289Z,22.80
2022-08-19T06:02:01.766Z,24.90
2022-08-19T06:05:08.048Z,24.80
2022-08-19T06:08:09.743Z,22.80
2022-08-19T06:11:47.898Z,26.00
2022-08-19T06:15:00.644Z,26.80
2022-08-19T06:18:04.633Z,22.00
2022-08-19T06:21:06.344Z,22.20
2022-08-19T06:24:10.550Z,22.40
2022-08-19T06:27:12.281Z,21.90
2022-08-19T06:30:14.553Z,22.20
2022-08-19T06:33:16.425Z,23.00
2022-08-19T06:36:35.028Z,23.00
2022-08-19T06:39:39.600Z,23.40
2022-08-19T06:42:44.840Z,21.50
2022-08-19T06:45:57.313Z,22.10
2022-08-19T06:49:01.886Z,22.90
2022-08-19T06:52:04.735Z,23.00
2022-08-19T06:55:06.979Z,22.90
2022-08-19T06:58:10.435Z,23.30
2022-08-19T07:01:12.215Z,22.80
2022-08-19T07:04:17.287Z,22.50
2022-08-19T07:07:22.162Z,22.90
2022-08-19T07:10:24.315Z,23.10
2022-08-19T07:13:27.627Z,21.30
2022-08-19T07:16:29.791Z,22.10
2022-08-19T07:19:32.471Z,24.40
2022-08-19T07:22:35.533Z,23.90
2022-08-19T07:25:38.942Z,21.90
2022-08-19T07:28:46.094Z,22.50
2022-08-19T07:31:57.508Z,22.00
2022-08-19T07:35:04.390Z,21.10
2022-08-19T07:38:06.112Z,21.20
2022-08-19T07:41:09.733Z,20.90
2022-08-19T07:44:12.381Z,20.50
2022-08-19T07:47:48.139Z,22.80
2022-08-19T07:50:38.346Z,19.70
2022-08-19T07:53:40.169Z,19.20
2022-08-19T07:56:42.084Z,21.20
2022-08-19T07:59:44.141Z,21.90
2022-08-19T08:02:45.876Z,19.00
2022-08-19T08:06:07.358Z,19.40
2022-08-19T08:09:13.595Z,19.60
2022-08-19T08:12:34.317Z,21.40
2022-08-19T08:15:42.741Z,21.20
2022-08-19T08:18:50.547Z,21.40
2022-08-19T08:21:57.609Z,18.00
2022-08-19T08:25:12.750Z,18.40
2022-08-19T08:28:17.969Z,19.90
2022-08-19T08:31:20.353Z,22.00
2022-08-19T08:34:22.291Z,19.10
2022-08-19T08:37:24.210Z,19.80
2022-08-19T08:40:32.300Z,21.00
2022-08-19T08:43:37.082Z,19.20
2022-08-19T08:46:43.358Z,19.70
2022-08-19T08:49:52.512Z,20.30
2022-08-19T08:52:57.838Z,19.20
2022-08-19T08:56:04.186Z,20.50
2022-08-19T08:59:14.268Z,18.50
2022-08-19T09:02:17.102Z,19.30
2022-08-19T09:05:25.918Z,19.40
2022-08-19T09:08:40.639Z,19.70
2022-08-19T09:11:45.827Z,19.40
2022-08-19T09:14:58.238Z,21.30
2022-08-19T09:18:02.893Z,20.10
2022-08-19T09:21:04.704Z,19.20
2022-08-19T09:24:07.212Z,19.50
2022-08-19T09:27:18.232Z,18.70
2022-08-19T09:30:25.027Z,18.50
2022-08-19T09:33:26.877Z,17.80
2022-08-19T09:36:34.576Z,18.60
2022-08-19T09:39:36.833Z,17.90
2022-08-19T09:42:49.644Z,19.80
2022-08-19T09:45:53.488Z,16.20
2022-08-19T09:48:57.887Z,18.00
2022-08-19T09:52:04.907Z,18.90
2022-08-19T09:55:08.529Z,16.80
2022-08-19T09:58:11.265Z,18.00
2022-08-19T10:01:25.511Z,17.00
2022-08-19T10:04:47.585Z,17.90
2022-08-19T10:07:49.676Z,21.20
2022-08-19T10:10:51.771Z,19.20
2022-08-19T10:13:53.732Z,18.50
2022-08-19T10:16:55.811Z,15.80
2022-08-19T10:19:57.538Z,17.60
2022-08-19T10:23:00.620Z,18.80
2022-08-19T10:26:07.008Z,18.30
2022-08-19T10:29:09.529Z,18.30
2022-08-19T10:32:11.493Z,17.60
2022-08-19T10:35:21.908Z,18.30
2022-08-19T10:38:31.269Z,16.80
2022-08-19T10:41:36.218Z,20.90
2022-08-19T10:44:38.056Z,16.10
2022-08-19T10:47:40.571Z,20.10
2022-08-19T10:51:00.853Z,21.10
2022-08-19T10:54:04.126Z,19.40
2022-08-19T10:57:08.709Z,19.10
2022-08-19T11:00:11.279Z,16.70
2022-08-19T11:03:13.272Z,16.00
2022-08-19T11:06:14.979Z,17.00
2022-08-19T11:09:19.738Z,18.90
2022-08-19T11:12:21.478Z,17.80
2022-08-19T11:15:23.524Z,17.70
2022-08-19T11:18:25.481Z,16.80
2022-08-19T11:21:33.313Z,18.60
2022-08-19T11:24:36.019Z,16.80
2022-08-19T11:27:45.756Z,17.80
2022-08-19T11:30:47.553Z,17.80
2022-08-19T11:33:54.551Z,15.60
2022-08-19T11:37:00.692Z,19.90
2022-08-19T11:40:02.436Z,18.50
2022-08-19T11:43:05.323Z,20.50
2022-08-19T11:46:09.616Z,15.70
2022-08-19T11:49:14.059Z,16.40
2022-08-19T11:52:16.469Z,19.60
2022-08-19T11:55:18.359Z,16.60
2022-08-19T11:58:20.295Z,16.10
2022-08-19T12:01:24.052Z,17.40
2022-08-19T12:04:25.903Z,21.20
2022-08-19T12:07:27.947Z,16.10
2022-08-19T12:10:29.757Z,19.10
2022-08-19T12:13:31.839Z,16.00
2022-08-19T12:16:34.135Z,18.80
2022-08-19T12:19:37.986Z,19.00
2022-08-19T12:22:42.165Z,16.00
2022-08-19T12:25:52.741Z,17.60
2022-08-19T12:28:54.854Z,17.10
2022-08-19T12:32:03.781Z,16.60
2022-08-19T12:35:07.988Z,14.60
2022-08-19T12:38:09.900Z,20.40
2022-08-19T12:41:15.107Z,19.80
2022-08-19T12:44:17.713Z,18.10
2022-08-19T12:47:22.065Z,16.70
2022-08-19T12:50:23.949Z,18.60
2022-08-19T12:53:26.059Z,20.20
2022-08-19T12:56:28.475Z,19.10
2022-08-19T12:59:30.381Z,14.80
2022-08-19T13:02:38.330Z,16.40
2022-08-19T13:05:41.516Z,14.60
2022-08-19T13:08:43.403Z,18.30
2022-08-19T13:11:48.412Z,17.60
2022-08-19T13:14:51.090Z,18.90
2022-08-19T13:17:54.911Z,17.20
2022-08-19T13:20:57.504Z,16.00
2022-08-19T13:23:59.720Z,16.70
2022-08-19T13:27:20.824Z,17.70
2022-08-19T13:30:42.074Z,14.90
2022-08-19T13:33:43.854Z,17.40
2022-08-19T13:36:45.976Z,15.50
2022-08-19T13:39:48.428Z,16.10
2022-08-19T13:42:52.761Z,17.80
2022-08-19T13:45:57.251Z,16.50
2022-08-19T13:48:59.437Z,15.30
2022-08-19T13:52:01.271Z,15.50
2022-08-19T13:55:04.359Z,18.60
2022-08-19T13:58:06.303Z,18.60
2022-08-19T14:01:08.676Z,18.40
2022-08-19T14:04:10.604Z,16.00
2022-08-19T14:07:12.382Z,15.10
2022-08-19T14:10:14.935Z,17.50
2022-08-19T14:13:21.180Z,16.30
2022-08-19T14:16:22.881Z,18.20
2022-08-19T14:19:24.682Z,17.40
2022-08-19T14:22:31.934Z,18.50
2022-08-19T14:25:35.068Z,18.40
2022-08-19T14:28:36.854Z,22.80
2022-08-19T14:31:40.894Z,17.60
2022-08-19T14:34:42.683Z,19.80
2022-08-19T14:37:56.081Z,18.00
2022-08-19T14:41:14.108Z,16.80
2022-08-19T14:44:15.974Z,14.00
2022-08-19T14:47:18.108Z,15.80
2022-08-19T14:50:21.431Z,14.60
2022-08-19T14:53:23.220Z,14.40
2022-08-19T14:56:27.981Z,19.00
2022-08-19T14:59:29.751Z,18.20
2022-08-19T15:02:34.594Z,16.70
2022-08-19T15:05:37.499Z,15.00
2022-08-19T15:08:41.177Z,18.00
2022-08-19T15:11:43.788Z,14.80
2022-08-19T15:14:51.271Z,19.00
2022-08-19T15:18:03.231Z,16.40
2022-08-19T15:21:05.832Z,17.30
2022-08-19T15:24:07.638Z,18.50
2022-08-19T15:27:09.328Z,20.00
2022-08-19T15:30:12.473Z,17.90
2022-08-19T15:33:15.384Z,17.60
2022-08-19T15:36:17.506Z,20.20
2022-08-19T15:39:21.706Z,17.70
2022-08-19T15:42:29.798Z,22.40
2022-08-19T15:45:33.012Z,18.10
2022-08-19T15:48:34.956Z,19.40
2022-08-19T15:51:39.224Z,20.00
2022-08-19T15:54:41.203Z,17.90
2022-08-19T15:58:01.720Z,19.80
2022-08-19T16:01:27.216Z,19.50
2022-08-19T16:04:47.874Z,20.90
2022-08-19T16:07:49.673Z,21.90
2022-08-19T16:10:51.368Z,19.10
2022-08-19T16:13:54.937Z,22.10
2022-08-19T16:16:57.136Z,20.90
2022-08-19T16:19:58.886Z,20.50
2022-08-19T16:23:03.492Z,20.20
2022-08-19T16:26:05.318Z,19.90
2022-08-19T16:29:11.964Z,19.50
2022-08-19T16:32:15.077Z,20.40
2022-08-19T16:35:16.863Z,23.00
2022-08-19T16:38:18.822Z,23.30
2022-08-19T16:41:21.437Z,19.90
2022-08-19T16:44:23.431Z,21.00
2022-08-19T16:47:25.326Z,20.70
2022-08-19T16:50:47.767Z,23.10
2022-08-19T16:53:49.078Z,20.60
2022-08-19T16:56:51.282Z,21.90
2022-08-19T16:59:52.990Z,20.50
2022-08-19T17:02:54.877Z,25.50
2022-08-19T17:06:02.642Z,26.00
2022-08-19T17:09:06.693Z,21.40
2022-08-19T17:12:08.665Z,25.10
2022-08-19T17:15:10.466Z,23.10
2022-08-19T17:18:13.647Z,23.00
2022-08-19T17:21:15.346Z,23.50
2022-08-19T17:24:17.177Z,21.60
2022-08-19T17:27:19.973Z,22.10
2022-08-19T17:30:22.726Z,22.50
2022-08-19T17:33:24.713Z,22.40
2022-08-19T17:36:29.411Z,24.10
2022-08-19T17:39:31.295Z,22.90
2022-08-19T17:42:40.278Z,25.60
2022-08-19T17:45:43.152Z,24.00
2022-08-19T17:48:51.725Z,26.50
2022-08-19T17:51:54.168Z,30.20
2022-08-19T17:54:56.632Z,30.40
2022-08-19T17:57:58.489Z,30.00
2022-08-19T18:01:01.729Z,27.30
2022-08-19T18:04:04.815Z,30.10
2022-08-19T18:07:06.721Z,30.40
2022-08-19T18:10:09.305Z,27.30
2022-08-19T18:13:17.683Z,27.80
2022-08-19T18:16:22.240Z,28.90
2022-08-19T18:19:25.452Z,26.10
2022-08-19T18:22:38.597Z,28.40
2022-08-19T18:25:43.629Z,25.80
2022-08-19T18:28:49.858Z,29.40
2022-08-19T18:31:51.885Z,33.10
2022-08-19T18:34:54.700Z,29.30
2022-08-19T18:37:59.125Z,33.40
2022-08-19T18:41:34.077Z,28.80
2022-08-19T18:44:59.744Z,27.60
2022-08-19T18:48:26.785Z,26.70
2022-08-19T18:51:32.878Z,26.50
2022-08-19T18:54:35.741Z,29.50
2022-08-19T18:57:37.660Z,29.70
2022-08-19T19:00:40.586Z,30.50
2022-08-19T19:03:53.688Z,30.30
2022-08-19T19:06:55.490Z,26.00
2022-08-19T19:09:57.302Z,27.00
2022-08-19T19:13:01.436Z,32.30
2022-08-19T19:16:04.176Z,29.30
2022-08-19T19:19:13.057Z,28.70
2022-08-19T19:22:19.557Z,29.40
2022-08-19T19:25:21.364Z,29.80
2022-08-19T19:28:28.366Z,29.60
2022-08-19T19:31:33.004Z,32.50
2022-08-19T19:34:37.778Z,30.00
2022-08-19T19:37:39.623Z,29.40
2022-08-19T19:40:41.419Z,30.40
2022-08-19T19:43:43.134Z,31.10
2022-08-19T19:46:45.280Z,27.60
2022-08-19T19:50:13.776Z,27.80
2022-08-19T19:53:15.226Z,28.80
2022-08-19T19:56:17.125Z,29.20
2022-08-19T19:59:19.435Z,29.60
2022-08-19T20:02:22.125Z,33.80
2022-08-19T20:05:25.101Z,27.40
2022-08-19T20:08:46.594Z,30.00
2022-08-19T20:11:53.488Z,29.40
2022-08-19T20:14:56.320Z,26.60
2022-08-19T20:17:59.738Z,28.30
2022-08-19T20:21:01.559Z,32.00
2022-08-19T20:24:09.365Z,26.80
2022-08-19T20:27:11.967Z,31.70
2022-08-19T20:30:19.527Z,27.40
2022-08-19T20:33:21.710Z,30.70
2022-08-19T20:36:24.913Z,30.00
2022-08-19T20:39:26.692Z,27.80
2022-08-19T20:42:28.622Z,28.10
2022-08-19T20:45:33.449Z,26.10
2022-08-19T20:48:38.621Z,30.40
2022-08-19T20:51:41.330Z,31.30
2022-08-19T20:54:43.300Z,27.30
2022-08-19T20:57:45.432Z,30.30
2022-08-19T21:00:48.267Z,30.30
2022-08-19T21:03:51.818Z,29.20
2022-08-19T21:06:54.859Z,28.00
2022-08-19T21:09:56.570Z,26.70
2022-08-19T21:12:58.826Z,27.80
2022-08-19T21:16:00.679Z,26.00
2022-08-19T21:19:04.665Z,30.10
2022-08-19T21:22:06.417Z,25.10
2022-08-19T21:25:08.344Z,27.00
2022-08-19T21:28:10.366Z,26.70
2022-08-19T21:31:12.229Z,26.80
2022-08-19T21:34:13.914Z,29.30
2022-08-19T21:37:25.602Z,26.50
2022-08-19T21:40:28.073Z,26.20
2022-08-19T21:43:29.937Z,30.70
2022-08-19T21:46:33.862Z,26.00
2022-08-19T21:49:38.622Z,26.00
2022-08-19T21:52:40.653Z,29.60
2022-08-19T21:55:42.389Z,33.90
2022-08-19T21:58:44.813Z,24.60
2022-08-19T22:01:50.585Z,33.70
2022-08-19T22:04:55.882Z,31.60
2022-08-19T22:07:59.365Z,24.90
2022-08-19T22:11:03.675Z,33.40
2022-08-19T22:14:05.885Z,29.40
2022-08-19T22:17:09.517Z,28.50
2022-08-19T22:20:18.676Z,27.00
2022-08-19T22:23:20.424Z,30.50
2022-08-19T22:26:22.577Z,26.60
2022-08-19T22:29:34.045Z,29.50
2022-08-19T22:32:36.924Z,29.30
2022-08-19T22:35:40.324Z,27.40
2022-08-19T22:38:42.167Z,33.00
2022-08-19T22:41:44.169Z,30.10
2022-08-19T22:44:46.326Z,33.10
2022-08-19T22:47:48.060Z,31.30
2022-08-19T22:51:08.848Z,30.10
2022-08-19T22:54:11.110Z,28.90
2022-08-19T22:57:13.824Z,29.00
2022-08-19T23:00:16.249Z,28.10
2022-08-19T23:03:18.186Z,28.20
2022-08-19T23:06:19.822Z,34.00
2022-08-19T23:09:23.502Z,26.50
2022-08-19T23:12:30.909Z,30.60
2022-08-19T23:15:33.671Z,30.80
2022-08-19T23:18:35.568Z,29.90
2022-08-19T23:21:41.520Z,28.60
2022-08-19T23:24:43.622Z,29.10
2022-08-19T23:28:04.594Z,29.30
2022-08-19T23:31:06.980Z,32.30
2022-08-19T23:34:09.005Z,29.40
2022-08-19T23:37:10.742Z,31.50
2022-08-19T23:40:12.533Z,31.80
2022-08-19T23:43:17.457Z,28.70
2022-08-19T23:46:28.296Z,29.90
2022-08-19T23:49:31.468Z,28.30
2022-08-19T23:52:34.795Z,33.90
2022-08-19T23:55:40.257Z,29.50
2022-08-19T23:58:42.096Z,33.70
